Latest Coastal Weather Observations for Lucinda

IDQ60701

Issued at 1:21 pm EST Monday 24 April 2017 (issued every 10 minutes, with the page automatically refreshed every 10 minutes)

About coastal observations | Map of coastal stations | Coastal observations for QLD | Marine services | Other Formats
Station Details ID: 032141 Name: LUCINDA POINT Lat: -18.52 Lon: 146.39 Height: 10.0 m
Data from the previous 72 hours. | See also: Recent months at Lucinda
Date/Time
EST
Temp
°C
Wind Pressure Rain since
9am
mm
Weather Cloud Vis
km
Sea
Height
m
Swell
Dir  Spd
kts
Gust
kts
hPa Trend Height
m
Period
s
Dir
24/01:00pm 24.9 S 13 15 1015.3 - 0.0 - - - - - - -
24/12:30pm 24.9 S 13 15 1015.7 - 0.0 - - - - - - -
24/12:00pm 24.6 S 13 15 1016.1 - 0.0 - - - - - - -
24/11:30am 24.6 S 13 15 1016.5 - 0.0 - - - - - - -
24/11:00am 24.4 S 15 17 1016.7 - 0.0 - - - - - - -
24/10:30am 24.3 S 14 17 1017.0 - 0.0 - - - - - - -
24/10:00am 24.3 S 13 15 1017.3 - 0.0 - - - - - - -
24/09:30am 24.2 S 14 18 1017.1 - 0.0 - - - - - - -
24/09:00am 24.1 S 13 17 1016.9 - 0.0 - - - - - - -
24/08:30am 24.0 S 14 16 1016.5 - 0.0 - - - - - - -
24/08:00am 24.3 S 11 15 1016.3 - 0.0 - - - - - - -
24/07:30am 24.0 S 12 15 1016.2 - 0.0 - - - - - - -
24/07:00am 23.9 S 11 15 1015.8 - 0.0 - - - - - - -
24/06:30am 23.9 S 13 18 1015.5 - 0.0 - - - - - - -
24/06:00am 24.0 S 10 14 1015.2 - 0.0 - - - - - - -
24/05:30am 24.1 S 11 16 1015.0 - 0.0 - - - - - - -
24/05:00am 24.1 S 13 17 1014.7 - 0.0 - - - - - - -
24/04:30am 24.1 S 11 17 1014.7 - 0.0 - - - - - - -
24/04:00am 24.1 S 10 15 1014.6 - 0.0 - - - - - - -
24/03:30am 24.2 SE 9 14 1014.8 - 0.0 - - - - - - -
24/03:00am 23.7 S 14 18 1015.1 - 0.0 - - - - - - -
24/02:30am 24.3 S 13 19 1015.3 - 0.0 - - - - - - -
24/02:00am 24.3 S 17 22 1015.5 - 0.0 - - - - - - -
24/01:30am 23.8 S 16 19 1015.8 - 0.0 - - - - - - -
24/01:00am 24.0 S 9 12 1016.2 - 0.0 - - - - - - -
24/12:30am 24.4 SE 12 20 1016.2 - 0.0 - - - - - - -
24/12:00am 24.7 SE 12 19 1016.7 - 0.0 - - - - - - -
 
Date/Time
EST
Temp
°C
Wind Pressure Rain since
9am
mm
Weather Cloud Vis
km
Sea
Height
m
Swell
Dir  Spd
kts
Gust
kts
hPa Trend Height
m
Period
s
Dir
23/11:30pm 25.0 SE 12 18 1017.0 - 0.0 - - - - - - -
23/11:00pm 25.1 SE 15 23 1017.1 - 0.0 - - - - - - -
23/10:30pm 25.4 ESE 12 19 1017.3 - 0.0 - - - - - - -
23/10:00pm 25.3 SE 12 20 1017.2 - 0.0 - - - - - - -
23/09:30pm 25.3 SE 13 19 1017.3 - 0.0 - - - - - - -
23/09:00pm 25.4 SE 14 21 1017.1 - 0.0 - - - - - - -
23/08:30pm 25.4 SE 14 21 1016.9 - 0.0 - - - - - - -
23/08:00pm 25.4 SE 11 17 1016.6 - 0.0 - - - - - - -
23/07:30pm 25.2 SE 11 18 1016.4 - 0.0 - - - - - - -
23/07:00pm 25.2 SE 10 16 1016.0 - 0.0 - - - - - - -
23/06:30pm 25.2 SE 10 17 1015.6 - 0.0 - - - - - - -
23/06:00pm 25.3 SSE 8 13 1015.4 - 0.0 - - - - - - -
23/05:30pm 25.6 SE 9 15 1015.2 - 0.0 - - - - - - -
23/05:00pm 26.0 SSE 6 11 1015.0 - 0.0 - - - - - - -
23/04:30pm 25.3 S 6 8 1014.9 - 0.0 - - - - - - -
23/04:00pm 24.6 S 8 9 1014.7 - 0.0 - - - - - - -
23/03:30pm 24.1 S 9 11 1014.6 - 0.0 - - - - - - -
23/03:00pm 24.6 S 7 11 1014.7 - 0.0 - - - - - - -
23/02:30pm 24.3 S 13 16 1015.1 - 0.0 - - - - - - -
23/02:00pm 24.1 S 11 14 1015.5 - 0.0 - - - - - - -
23/01:30pm 24.3 S 13 16 1015.7 - 0.0 - - - - - - -
23/01:00pm 23.9 S 15 18 1016.1 - 0.0 - - - - - - -
23/12:30pm 23.9 S 17 20 1016.5 - 0.0 - - - - - - -
23/12:00pm 23.6 S 17 20 1016.8 - 0.0 - - - - - - -
23/11:30am 23.0 S 20 23 1017.1 - 0.0 - - - - - - -
23/11:00am 23.2 S 14 21 1017.2 - 0.0 - - - - - - -
23/10:30am 23.7 S 19 23 1017.3 - 0.0 - - - - - - -
23/10:00am 24.2 S 15 20 1017.3 - 0.0 - - - - - - -
23/09:30am 24.0 S 17 20 1017.1 - 0.0 - - - - - - -
23/09:00am 24.0 S 17 21 1016.8 - 2.4 - - - - - - -
23/08:30am 23.8 S 15 21 1016.7 - 2.4 - - - - - - -
23/08:00am 23.9 S 15 22 1016.3 - 2.4 - - - - - - -
23/07:30am 24.0 S 14 21 1016.0 - 2.4 - - - - - - -
23/07:00am 23.9 S 15 19 1015.7 - 2.4 - - - - - - -
23/06:30am 24.0 S 14 19 1015.6 - 2.4 - - - - - - -
23/06:00am 24.2 S 11 16 1015.3 - 2.4 - - - - - - -
23/05:30am 24.1 S 12 17 1015.0 - 2.4 - - - - - - -
23/05:00am 24.2 S 13 18 1014.8 - 2.4 - - - - - - -
23/04:30am 24.3 S 11 16 1014.8 - 2.4 - - - - - - -
23/04:00am 24.1 S 15 21 1014.9 - 2.4 - - - - - - -
23/03:30am 24.4 S 13 18 1014.7 - 2.4 - - - - - - -
23/03:00am 24.2 S 8 14 1014.8 - 2.4 - - - - - - -
23/02:30am 24.4 S 12 17 1015.0 - 2.4 - - - - - - -
23/02:00am 24.6 S 13 17 1015.2 - 2.4 - - - - - - -
23/01:30am 25.3 SSE 7 12 1015.4 - 2.4 - - - - - - -
23/01:00am 25.3 SE 10 17 1015.8 - 2.4 - - - - - - -
23/12:30am 25.2 ESE 12 21 1016.1 - 2.4 - - - - - - -
23/12:00am 25.8 SE 13 20 1016.3 - 2.4 - - - - - - -
 
Date/Time
EST
Temp
°C
Wind Pressure Rain since
9am
mm
Weather Cloud Vis
km
Sea
Height
m
Swell
Dir  Spd
kts
Gust
kts
hPa Trend Height
m
Period
s
Dir
22/11:30pm 25.8 SE 14 21 1016.2 - 2.4 - - - - - - -
22/11:00pm 25.7 SE 12 20 1016.3 - 2.4 - - - - - - -
22/10:30pm 25.3 SE 13 24 1016.7 - 2.4 - - - - - - -
22/10:00pm 24.5 ESE 10 16 1017.1 - 2.2 - - - - - - -
22/09:30pm 25.9 ESE 11 17 1017.1 - 2.2 - - - - - - -
22/09:00pm 25.9 SE 11 19 1017.2 - 2.2 - - - - - - -
22/08:30pm 25.9 ESE 12 21 1017.0 - 2.2 - - - - - - -
22/08:00pm 25.9 SE 12 21 1016.7 - 2.2 - - - - - - -
22/07:30pm 26.0 SE 15 22 1016.3 - 2.2 - - - - - - -
22/07:00pm 25.9 SE 14 22 1015.8 - 2.2 - - - - - - -
22/06:31pm 26.0 SE 15 25 1015.6 - 2.2 - - - - - - -
22/06:30pm 25.9 SE 16 25 1015.6 - 2.2 - - - - - - -
22/06:00pm 25.8 SE 15 23 1015.6 - 2.2 Recent precip. - - - - - -
22/05:59pm 25.9 ESE 15 23 1015.6 - 2.2 - - - - - - -
22/05:30pm 23.5 S 10 15 1015.3 - 2.0 - - - - - - -
22/05:00pm 23.6 SSE 9 15 1015.4 - 1.4 - - - - - - -
22/04:30pm 23.9 SE 12 20 1014.9 - 1.4 - - - - - - -
22/04:00pm 24.9 S 9 13 1014.7 - 1.4 - - - - - - -
22/03:30pm 24.9 SE 12 22 1014.4 - 1.4 - - - - - - -
22/03:00pm 22.8 SSW 10 16 1014.8 - 1.4 Recent precip. - - - - - -
22/02:30pm 23.4 S 18 22 1014.8 - 1.2 - - - - - - -
22/02:00pm 23.4 S 19 25 1014.9 - 1.2 - - - - - - -
22/01:30pm 23.7 S 11 17 1015.1 - 1.2 - - - - - - -
22/01:00pm 22.5 S 13 20 1015.4 - 1.0 - - - - - - -
22/12:30pm 23.2 S 19 24 1015.8 - 0.8 - - - - - - -
22/12:00pm 23.6 S 21 27 1016.1 - 0.8 Recent precip. - - - - - -
22/11:30am 23.0 S 20 23 1016.5 - 0.8 - - - - - - -
22/11:00am 23.4 S 19 23 1017.0 - 0.2 - - - - - - -
22/10:30am 23.3 S 18 21 1017.2 - 0.2 - - - - - - -
22/10:00am 22.7 S 19 26 1017.3 - 0.0 - - - - - - -
22/09:30am 24.4 S 10 19 1017.1 - 0.0 - - - - - - -
22/09:00am 23.1 S 17 23 1017.0 - 1.0 - - - - - - -
22/08:30am 24.8 SE 10 19 1016.4 - 1.0 - - - - - - -
22/08:00am 24.5 S 9 20 1016.1 - 1.0 - - - - - - -
22/07:30am 23.8 S 9 15 1015.7 - 1.0 - - - - - - -
22/07:00am 24.1 S 9 15 1015.3 - 1.0 - - - - - - -
22/06:30am 24.3 S 12 17 1015.0 - 1.0 - - - - - - -
22/06:00am 24.3 S 10 17 1014.8 - 1.0 - - - - - - -
22/05:30am 24.3 S 10 14 1014.4 - 1.0 - - - - - - -
22/05:00am 24.1 S 11 15 1014.2 - 1.0 - - - - - - -
22/04:30am 24.2 S 11 16 1014.3 - 1.0 - - - - - - -
22/04:00am 24.4 S 12 18 1014.5 - 1.0 - - - - - - -
22/03:30am 24.6 S 13 23 1014.5 - 1.0 - - - - - - -
22/03:00am 24.4 S 14 21 1014.7 - 1.0 - - - - - - -
22/02:30am 24.6 S 14 20 1015.0 - 1.0 - - - - - - -
22/02:00am 24.7 S 14 20 1015.1 - 1.0 - - - - - - -
22/01:30am 24.7 S 11 15 1015.6 - 1.0 - - - - - - -
22/01:00am 24.2 S 8 16 1016.0 - 1.0 - - - - - - -
22/12:30am 23.5 S 7 9 1016.3 - 1.0 - - - - - - -
22/12:00am 22.6 ESE 8 14 1016.5 - 1.0 Recent precip. - - - - - -
 
Date/Time
EST
Temp
°C
Wind Pressure Rain since
9am
mm
Weather Cloud Vis
km
Sea
Height
m
Swell
Dir  Spd
kts
Gust
kts
hPa Trend Height
m
Period
s
Dir
21/11:30pm 23.8 SE 14 25 1016.6 - 0.0 - - - - - - -
21/11:00pm 24.9 SE 15 26 1016.9 - 0.0 - - - - - - -
21/10:46pm 25.2 SE 16 26 1016.7 - 0.0 - - - - - - -
21/10:30pm 25.0 SSE 12 20 1017.0 - 0.0 - - - - - - -
21/10:00pm 24.4 SE 15 24 1017.0 - 0.0 - - - - - - -
21/09:30pm 24.7 SE 15 27 1017.0 - 0.0 - - - - - - -
21/09:22pm 25.4 SE 16 27 1016.9 - 0.0 - - - - - - -
21/09:00pm 25.4 ESE 12 19 1016.9 - 0.0 - - - - - - -
21/08:30pm 25.6 ESE 12 20 1016.8 - 0.0 - - - - - - -
21/08:00pm 25.9 SE 13 21 1016.4 - 0.0 - - - - - - -
21/07:30pm 26.0 SE 15 24 1016.1 - 0.0 - - - - - - -
21/07:00pm 25.6 SE 12 20 1015.7 - 0.0 - - - - - - -
21/06:30pm 25.7 SE 13 21 1015.6 - 0.0 - - - - - - -
21/06:00pm 25.7 SE 10 19 1015.4 - 0.0 - - - - - - -
21/05:30pm 25.7 SE 11 17 1015.1 - 0.0 - - - - - - -
21/05:00pm 25.8 SE 13 19 1015.0 - 0.0 - - - - - - -
21/04:30pm 25.8 SE 11 17 1014.9 - 0.0 - - - - - - -
21/04:00pm 25.7 SE 11 19 1014.9 - 0.0 - - - - - - -
21/03:30pm 26.4 SE 11 19 1014.9 - 0.0 - - - - - - -
21/03:00pm 26.1 SE 11 19 1014.9 - 0.0 - - - - - - -
21/02:30pm 26.0 SE 11 21 1015.0 - 0.0 - - - - - - -
21/02:00pm 26.3 SE 11 17 1015.2 - 0.0 - - - - - - -
21/01:30pm 26.3 ESE 11 19 1015.3 - 0.0 - - - - - - -

Other Formats:

Comma delimited format used in spreadsheet applications
http://www.bom.gov.au/fwo/IDQ60701/IDQ60701.94295.axf

JavaScript Object Notation format (JSON) in row-major order
http://www.bom.gov.au/fwo/IDQ60701/IDQ60701.94295.json